Aeroporto :
LOGIN :

Iscrizione | Disclaimer

   EN    FR    IT 

 










Sommario :    VFR   VFR Marginale   IFR   IFR Intensivo   IFR Molto Intensivo
Visibilità : 
Base nubi : 
>= 8 km
>= 3000ft
5 / 8 km
1000 / 3000 ft
1500m / 5 km
500 / 1000 ft
800 / 1500m
200 / 500 ft
< 800m
< 200 ft
Simboli :   Temporali  Nebbia  Neve Forte  Precipitazioni Forti  Vento > 20 kt
SIGMETs :   Varie  Temporali  Ghiacco  Turbolenza  Onda orograficha  Ceneri Vulcaniche







- Altitudine del aeroporto : 1363 ft


ETIC - Grafenwohr Army Air Field

ULTIMO METAR :
  • 230156Z AUTO 00000KT 9999 CLR 08/08 A3031 RMK AO2 SLP260 T00840083 $

METARs OBSOLETI :
  • 230056Z AUTO 00000KT 9999 CLR 09/09 A3030 RMK AO2 SLP257 T00910089 $
  • 222356Z AUTO 00000KT 9999 CLR 10/10 A3031 RMK AO2 SLP260 T00990097 10208 20096 50000 $
  • 222256Z AUTO 00000KT 9999 CLR 11/11 A3031 RMK AO2 SLP258 T01080105 402470069 $

TAF TAF ETIC
Valido dal 22 a 22 ore il 24 a 04 ore UTC


222200Z 2222/2404 VRB06KT 9999 SKC QNH3031INS
BECMG 2307/2308 08009KT 9999 SKC QNH3030INS
BECMG 2317/2318 VRB06KT 9999 SKC QNH3026INS TX23/2313Z TN11/2303Z
Nessun NOTAM noto per questo aeroporto.



MetMap, La meteo Aeronautica in un colpo d'occhio ! - Copyright ORBIFLY Dicembre 2007 - Disclaimer

ORBIFLY MET'MAP TEAM :

Programmazione e sviluppo : Alexandra Zaïnal
Concezione e sviluppo : Baudouin d'Aumeries
Co-Programmazione e sviluppo : Marc-Olivier Méhu
Supporto tecnico e logistico : Manuel Goepfert
Aiuto per la traduzione : Arnaldo La Scala

Contatto : metmap@orbifly.com




FONTI E CREDITI :

   NOAA